sensor_id;sensor_type;location;lat;lon;timestamp;temperature;humidity
8103;DHT22;4094;49.948;11.574;2024-01-15T00:03:05;2.30;65.50
8103;DHT22;4094;49.948;11.574;2024-01-15T00:07:43;2.30;66.00
8103;DHT22;4094;49.948;11.574;2024-01-15T00:11:33;2.20;65.80
8103;DHT22;4094;49.948;11.574;2024-01-15T00:15:38;2.10;65.90
8103;DHT22;4094;49.948;11.574;2024-01-15T00:20:00;2.10;66.00
8103;DHT22;4094;49.948;11.574;2024-01-15T00:24:15;2.10;65.80
8103;DHT22;4094;49.948;11.574;2024-01-15T00:36:17;2.00;66.30
8103;DHT22;4094;49.948;11.574;2024-01-15T01:31:32;1.60;67.30
8103;DHT22;4094;49.948;11.574;2024-01-15T01:35:43;1.50;67.10
8103;DHT22;4094;49.948;11.574;2024-01-15T01:39:53;1.50;67.30
8103;DHT22;4094;49.948;11.574;2024-01-15T01:44:10;1.50;67.10
8103;DHT22;4094;49.948;11.574;2024-01-15T01:51:22;1.50;67.40
8103;DHT22;4094;49.948;11.574;2024-01-15T01:59:53;1.50;67.60
8103;DHT22;4094;49.948;11.574;2024-01-15T02:11:19;1.40;67.30
8103;DHT22;4094;49.948;11.574;2024-01-15T02:38:27;1.40;67.80
8103;DHT22;4094;49.948;11.574;2024-01-15T02:42:09;1.50;68.10
8103;DHT22;4094;49.948;11.574;2024-01-15T02:46:29;1.50;67.60
8103;DHT22;4094;49.948;11.574;2024-01-15T02:50:27;1.60;67.50
8103;DHT22;4094;49.948;11.574;2024-01-15T02:55:20;1.50;67.40
8103;DHT22;4094;49.948;11.574;2024-01-15T02:59:40;1.60;67.60
8103;DHT22;4094;49.948;11.574;2024-01-15T03:03:23;1.60;67.40
8103;DHT22;4094;49.948;11.574;2024-01-15T03:08:19;1.60;67.10
8103;DHT22;4094;49.948;11.574;2024-01-15T03:23:54;1.60;67.10
8103;DHT22;4094;49.948;11.574;2024-01-15T03:57:48;1.60;67.90
8103;DHT22;4094;49.948;11.574;2024-01-15T04:06:25;1.70;67.60
8103;DHT22;4094;49.948;11.574;2024-01-15T04:21:04;1.70;67.60
8103;DHT22;4094;49.948;11.574;2024-01-15T04:24:59;1.70;67.70
8103;DHT22;4094;49.948;11.574;2024-01-15T04:32:48;1.80;67.70
8103;DHT22;4094;49.948;11.574;2024-01-15T04:40:50;1.80;67.60
8103;DHT22;4094;49.948;11.574;2024-01-15T04:44:02;1.90;68.40
8103;DHT22;4094;49.948;11.574;2024-01-15T04:47:22;1.90;68.20
8103;DHT22;4094;49.948;11.574;2024-01-15T04:55:35;2.00;67.90
8103;DHT22;4094;49.948;11.574;2024-01-15T04:59:17;2.00;67.60
8103;DHT22;4094;49.948;11.574;2024-01-15T05:06:57;2.00;68.10
8103;DHT22;4094;49.948;11.574;2024-01-15T05:10:12;2.00;67.90
8103;DHT22;4094;49.948;11.574;2024-01-15T05:18:09;2.00;68.00
8103;DHT22;4094;49.948;11.574;2024-01-15T05:23:03;2.00;67.80
8103;DHT22;4094;49.948;11.574;2024-01-15T05:27:44;2.10;68.00
8103;DHT22;4094;49.948;11.574;2024-01-15T05:34:48;2.10;68.20
8103;DHT22;4094;49.948;11.574;2024-01-15T05:37:43;2.10;68.30
8103;DHT22;4094;49.948;11.574;2024-01-15T05:40:40;2.10;68.30
8103;DHT22;4094;49.948;11.574;2024-01-15T05:43:48;2.10;68.20
8103;DHT22;4094;49.948;11.574;2024-01-15T05:46:58;2.10;68.20
8103;DHT22;4094;49.948;11.574;2024-01-15T05:50:13;2.10;68.10
8103;DHT22;4094;49.948;11.574;2024-01-15T05:54:35;2.10;68.20
8103;DHT22;4094;49.948;11.574;2024-01-15T05:57:29;2.10;68.20
8103;DHT22;4094;49.948;11.574;2024-01-15T06:00:36;2.10;68.20
8103;DHT22;4094;49.948;11.574;2024-01-15T06:03:40;2.10;68.20
8103;DHT22;4094;49.948;11.574;2024-01-15T06:06:45;2.10;68.30
8103;DHT22;4094;49.948;11.574;2024-01-15T06:09:40;2.20;68.60
8103;DHT22;4094;49.948;11.574;2024-01-15T06:12:44;2.20;68.70
8103;DHT22;4094;49.948;11.574;2024-01-15T06:15:54;2.20;68.70
8103;DHT22;4094;49.948;11.574;2024-01-15T06:19:09;2.20;68.70
8103;DHT22;4094;49.948;11.574;2024-01-15T06:23:20;2.20;68.70
8103;DHT22;4094;49.948;11.574;2024-01-15T06:27:13;2.20;68.80
8103;DHT22;4094;49.948;11.574;2024-01-15T06:31:58;2.20;69.10
8103;DHT22;4094;49.948;11.574;2024-01-15T06:40:35;2.20;69.10
8103;DHT22;4094;49.948;11.574;2024-01-15T07:04:11;2.20;69.60
8103;DHT22;4094;49.948;11.574;2024-01-15T07:08:17;2.20;69.40
8103;DHT22;4094;49.948;11.574;2024-01-15T07:13:31;2.20;69.20
8103;DHT22;4094;49.948;11.574;2024-01-15T07:18:03;2.20;69.10
8103;DHT22;4094;49.948;11.574;2024-01-15T07:22:49;2.30;69.30
8103;DHT22;4094;49.948;11.574;2024-01-15T07:27:28;2.30;69.30
8103;DHT22;4094;49.948;11.574;2024-01-15T07:32:06;2.30;69.30
8103;DHT22;4094;49.948;11.574;2024-01-15T07:42:55;2.40;68.80
8103;DHT22;4094;49.948;11.574;2024-01-15T07:46:27;2.40;68.80
8103;DHT22;4094;49.948;11.574;2024-01-15T07:49:53;2.40;69.20
8103;DHT22;4094;49.948;11.574;2024-01-15T07:54:59;2.40;69.30
8103;DHT22;4094;49.948;11.574;2024-01-15T07:58:53;2.40;69.40
8103;DHT22;4094;49.948;11.574;2024-01-15T08:03:33;2.50;69.40
8103;DHT22;4094;49.948;11.574;2024-01-15T08:12:04;2.50;68.90
8103;DHT22;4094;49.948;11.574;2024-01-15T08:19:44;2.50;69.20
8103;DHT22;4094;49.948;11.574;2024-01-15T08:23:09;2.60;69.00
8103;DHT22;4094;49.948;11.574;2024-01-15T08:26:50;2.60;68.60
8103;DHT22;4094;49.948;11.574;2024-01-15T08:30:16;2.60;68.50
8103;DHT22;4094;49.948;11.574;2024-01-15T08:41:26;2.70;69.20
8103;DHT22;4094;49.948;11.574;2024-01-15T08:45:24;2.70;68.80
8103;DHT22;4094;49.948;11.574;2024-01-15T08:49:03;2.70;68.80
8103;DHT22;4094;49.948;11.574;2024-01-15T08:52:19;2.70;68.70
8103;DHT22;4094;49.948;11.574;2024-01-15T09:00:22;2.70;68.70
8103;DHT22;4094;49.948;11.574;2024-01-15T09:03:56;2.60;68.40
8103;DHT22;4094;49.948;11.574;2024-01-15T09:06:54;2.60;68.90
8103;DHT22;4094;49.948;11.574;2024-01-15T09:10:18;2.60;69.10
8103;DHT22;4094;49.948;11.574;2024-01-15T09:18:07;2.60;68.80
8103;DHT22;4094;49.948;11.574;2024-01-15T09:21:56;2.60;68.80
8103;DHT22;4094;49.948;11.574;2024-01-15T09:25:30;2.60;68.80
8103;DHT22;4094;49.948;11.574;2024-01-15T09:28:24;2.70;68.90
8103;DHT22;4094;49.948;11.574;2024-01-15T09:31:15;2.70;68.80
8103;DHT22;4094;49.948;11.574;2024-01-15T09:34:39;2.70;68.80
8103;DHT22;4094;49.948;11.574;2024-01-15T09:37:56;2.70;69.10
8103;DHT22;4094;49.948;11.574;2024-01-15T09:46:15;2.80;69.30
8103;DHT22;4094;49.948;11.574;2024-01-15T09:50:01;2.90;69.00
8103;DHT22;4094;49.948;11.574;2024-01-15T09:58:25;2.90;69.50
8103;DHT22;4094;49.948;11.574;2024-01-15T10:01:44;2.90;69.20
8103;DHT22;4094;49.948;11.574;2024-01-15T10:04:39;3.00;69.70
8103;DHT22;4094;49.948;11.574;2024-01-15T10:07:40;3.00;69.70
8103;DHT22;4094;49.948;11.574;2024-01-15T10:11:01;3.10;70.00
8103;DHT22;4094;49.948;11.574;2024-01-15T10:14:30;3.10;69.70
8103;DHT22;4094;49.948;11.574;2024-01-15T10:17:29;3.20;68.90
8103;DHT22;4094;49.948;11.574;2024-01-15T10:20:22;3.20;68.70
8103;DHT22;4094;49.948;11.574;2024-01-15T10:23:17;3.20;68.70
8103;DHT22;4094;49.948;11.574;2024-01-15T10:26:18;3.30;69.00
8103;DHT22;4094;49.948;11.574;2024-01-15T10:30:08;3.30;68.90
8103;DHT22;4094;49.948;11.574;2024-01-15T10:33:12;3.30;68.70
8103;DHT22;4094;49.948;11.574;2024-01-15T10:37:52;3.30;68.60
8103;DHT22;4094;49.948;11.574;2024-01-15T10:41:01;3.30;69.00
8103;DHT22;4094;49.948;11.574;2024-01-15T10:44:00;3.30;68.60
8103;DHT22;4094;49.948;11.574;2024-01-15T10:48:22;3.30;68.60
8103;DHT22;4094;49.948;11.574;2024-01-15T10:51:38;3.40;68.80
8103;DHT22;4094;49.948;11.574;2024-01-15T10:54:41;3.40;68.70
8103;DHT22;4094;49.948;11.574;2024-01-15T10:58:03;3.40;68.10
8103;DHT22;4094;49.948;11.574;2024-01-15T11:00:56;3.40;67.70
8103;DHT22;4094;49.948;11.574;2024-01-15T11:04:19;3.40;67.30
8103;DHT22;4094;49.948;11.574;2024-01-15T11:07:11;3.30;68.20
8103;DHT22;4094;49.948;11.574;2024-01-15T11:10:42;3.30;67.40
8103;DHT22;4094;49.948;11.574;2024-01-15T11:13:50;3.30;67.70
8103;DHT22;4094;49.948;11.574;2024-01-15T11:16:57;3.30;67.70
8103;DHT22;4094;49.948;11.574;2024-01-15T11:19:52;3.20;68.40
8103;DHT22;4094;49.948;11.574;2024-01-15T11:22:50;3.30;68.60
8103;DHT22;4094;49.948;11.574;2024-01-15T11:25:59;3.30;68.40
8103;DHT22;4094;49.948;11.574;2024-01-15T11:28:54;3.30;68.40
8103;DHT22;4094;49.948;11.574;2024-01-15T11:32:04;3.30;68.20
8103;DHT22;4094;49.948;11.574;2024-01-15T11:34:59;3.30;68.20
8103;DHT22;4094;49.948;11.574;2024-01-15T11:38:26;3.30;68.10
8103;DHT22;4094;49.948;11.574;2024-01-15T11:41:34;3.30;69.20
8103;DHT22;4094;49.948;11.574;2024-01-15T11:45:02;3.30;68.50
8103;DHT22;4094;49.948;11.574;2024-01-15T11:49:09;3.40;68.40
8103;DHT22;4094;49.948;11.574;2024-01-15T11:52:02;3.40;68.60
8103;DHT22;4094;49.948;11.574;2024-01-15T11:55:18;3.40;68.70
8103;DHT22;4094;49.948;11.574;2024-01-15T12:05:20;3.50;68.80
8103;DHT22;4094;49.948;11.574;2024-01-15T12:08:41;3.50;68.60
8103;DHT22;4094;49.948;11.574;2024-01-15T12:15:57;3.50;68.60
8103;DHT22;4094;49.948;11.574;2024-01-15T12:19:03;3.50;68.50
8103;DHT22;4094;49.948;11.574;2024-01-15T12:26:44;3.50;68.90
8103;DHT22;4094;49.948;11.574;2024-01-15T12:29:50;3.50;68.50
8103;DHT22;4094;49.948;11.574;2024-01-15T12:33:38;3.50;68.80
8103;DHT22;4094;49.948;11.574;2024-01-15T12:36:30;3.50;68.90
8103;DHT22;4094;49.948;11.574;2024-01-15T12:39:27;3.50;68.90
8103;DHT22;4094;49.948;11.574;2024-01-15T12:42:28;3.50;69.00
8103;DHT22;4094;49.948;11.574;2024-01-15T12:45:31;3.50;69.10
8103;DHT22;4094;49.948;11.574;2024-01-15T12:48:42;3.50;68.90
8103;DHT22;4094;49.948;11.574;2024-01-15T12:55:50;3.60;68.70
8103;DHT22;4094;49.948;11.574;2024-01-15T12:59:36;3.60;68.90
8103;DHT22;4094;49.948;11.574;2024-01-15T13:08:00;3.70;68.90
8103;DHT22;4094;49.948;11.574;2024-01-15T13:11:20;3.70;68.90
8103;DHT22;4094;49.948;11.574;2024-01-15T13:18:59;3.70;68.90
8103;DHT22;4094;49.948;11.574;2024-01-15T13:22:46;3.80;68.90
8103;DHT22;4094;49.948;11.574;2024-01-15T13:38:34;3.80;68.60
8103;DHT22;4094;49.948;11.574;2024-01-15T13:41:47;3.80;68.50
8103;DHT22;4094;49.948;11.574;2024-01-15T13:45:16;3.80;68.60
8103;DHT22;4094;49.948;11.574;2024-01-15T13:48:28;3.80;68.80
8103;DHT22;4094;49.948;11.574;2024-01-15T13:56:54;3.80;68.90
8103;DHT22;4094;49.948;11.574;2024-01-15T14:04:57;3.80;69.20
8103;DHT22;4094;49.948;11.574;2024-01-15T14:16:28;3.80;68.40
8103;DHT22;4094;49.948;11.574;2024-01-15T14:24:20;3.80;68.10
8103;DHT22;4094;49.948;11.574;2024-01-15T14:39:59;3.80;68.00
8103;DHT22;4094;49.948;11.574;2024-01-15T14:44:56;3.80;68.10
8103;DHT22;4094;49.948;11.574;2024-01-15T14:47:57;3.80;68.10
8103;DHT22;4094;49.948;11.574;2024-01-15T14:51:20;3.80;68.00
8103;DHT22;4094;49.948;11.574;2024-01-15T14:54:31;3.80;68.10
8103;DHT22;4094;49.948;11.574;2024-01-15T14:58:23;3.80;68.10
8103;DHT22;4094;49.948;11.574;2024-01-15T15:01:40;3.80;68.10
8103;DHT22;4094;49.948;11.574;2024-01-15T15:04:55;3.90;68.20
8103;DHT22;4094;49.948;11.574;2024-01-15T15:08:19;3.90;68.30
8103;DHT22;4094;49.948;11.574;2024-01-15T15:11:37;3.80;68.40
8103;DHT22;4094;49.948;11.574;2024-01-15T15:18:33;3.80;68.80
8103;DHT22;4094;49.948;11.574;2024-01-15T15:34:05;3.60;70.20
8103;DHT22;4094;49.948;11.574;2024-01-15T15:38:30;3.70;70.40
8103;DHT22;4094;49.948;11.574;2024-01-15T15:52:13;3.60;70.30
8103;DHT22;4094;49.948;11.574;2024-01-15T16:00:14;3.60;71.10
8103;DHT22;4094;49.948;11.574;2024-01-15T16:03:15;3.60;70.60
8103;DHT22;4094;49.948;11.574;2024-01-15T16:07:05;3.60;70.60
8103;DHT22;4094;49.948;11.574;2024-01-15T16:10:10;3.60;70.60
8103;DHT22;4094;49.948;11.574;2024-01-15T16:13:33;3.60;70.80
8103;DHT22;4094;49.948;11.574;2024-01-15T16:18:55;3.60;70.70
8103;DHT22;4094;49.948;11.574;2024-01-15T16:26:58;3.60;70.40
8103;DHT22;4094;49.948;11.574;2024-01-15T16:33:12;3.70;70.40
8103;DHT22;4094;49.948;11.574;2024-01-15T16:39:56;3.70;70.10
8103;DHT22;4094;49.948;11.574;2024-01-15T16:53:28;3.60;70.00
8103;DHT22;4094;49.948;11.574;2024-01-15T16:56:46;3.60;70.00
8103;DHT22;4094;49.948;11.574;2024-01-15T16:59:58;3.60;69.80
8103;DHT22;4094;49.948;11.574;2024-01-15T17:03:03;3.70;69.70
8103;DHT22;4094;49.948;11.574;2024-01-15T17:07:55;3.70;69.90
8103;DHT22;4094;49.948;11.574;2024-01-15T17:11:29;3.70;69.80
8103;DHT22;4094;49.948;11.574;2024-01-15T17:14:50;3.70;69.60
8103;DHT22;4094;49.948;11.574;2024-01-15T17:19:14;3.70;69.70
8103;DHT22;4094;49.948;11.574;2024-01-15T17:22:24;3.70;69.80
8103;DHT22;4094;49.948;11.574;2024-01-15T17:26:23;3.70;69.90
8103;DHT22;4094;49.948;11.574;2024-01-15T17:30:17;3.70;69.90
8103;DHT22;4094;49.948;11.574;2024-01-15T17:33:24;3.80;69.90
8103;DHT22;4094;49.948;11.574;2024-01-15T17:36:41;3.80;69.70
8103;DHT22;4094;49.948;11.574;2024-01-15T17:40:13;3.80;69.60
8103;DHT22;4094;49.948;11.574;2024-01-15T17:43:43;3.80;69.50
8103;DHT22;4094;49.948;11.574;2024-01-15T17:47:05;3.80;69.30
8103;DHT22;4094;49.948;11.574;2024-01-15T17:50:30;3.80;69.30
8103;DHT22;4094;49.948;11.574;2024-01-15T17:57:19;3.70;69.70
8103;DHT22;4094;49.948;11.574;2024-01-15T18:00:10;3.70;69.50
8103;DHT22;4094;49.948;11.574;2024-01-15T18:03:28;3.70;69.70
8103;DHT22;4094;49.948;11.574;2024-01-15T18:06:20;3.70;70.20
8103;DHT22;4094;49.948;11.574;2024-01-15T18:09:28;3.80;70.10
8103;DHT22;4094;49.948;11.574;2024-01-15T18:12:23;3.80;69.70
8103;DHT22;4094;49.948;11.574;2024-01-15T18:15:20;3.80;69.90
8103;DHT22;4094;49.948;11.574;2024-01-15T18:18:10;3.80;69.90
8103;DHT22;4094;49.948;11.574;2024-01-15T18:21:01;3.90;69.70
8103;DHT22;4094;49.948;11.574;2024-01-15T18:23:53;3.90;69.60
8103;DHT22;4094;49.948;11.574;2024-01-15T18:30:26;3.90;69.30
8103;DHT22;4094;49.948;11.574;2024-01-15T18:33:22;3.80;69.20
8103;DHT22;4094;49.948;11.574;2024-01-15T18:36:18;3.90;69.10
8103;DHT22;4094;49.948;11.574;2024-01-15T18:39:34;3.90;69.30
8103;DHT22;4094;49.948;11.574;2024-01-15T18:42:42;3.90;69.40
8103;DHT22;4094;49.948;11.574;2024-01-15T18:46:06;3.90;69.20
8103;DHT22;4094;49.948;11.574;2024-01-15T18:49:04;3.90;69.00
8103;DHT22;4094;49.948;11.574;2024-01-15T18:52:20;4.00;69.20
8103;DHT22;4094;49.948;11.574;2024-01-15T18:59:20;4.00;68.80
8103;DHT22;4094;49.948;11.574;2024-01-15T19:05:55;4.00;68.90
8103;DHT22;4094;49.948;11.574;2024-01-15T19:08:54;4.00;68.70
8103;DHT22;4094;49.948;11.574;2024-01-15T19:11:43;4.00;68.70
8103;DHT22;4094;49.948;11.574;2024-01-15T19:14:45;4.00;68.70
8103;DHT22;4094;49.948;11.574;2024-01-15T19:18:01;4.00;68.60
8103;DHT22;4094;49.948;11.574;2024-01-15T19:21:09;4.00;68.20
8103;DHT22;4094;49.948;11.574;2024-01-15T19:25:06;4.00;68.60
8103;DHT22;4094;49.948;11.574;2024-01-15T19:28:15;4.00;68.60
8103;DHT22;4094;49.948;11.574;2024-01-15T19:31:19;3.90;68.50
8103;DHT22;4094;49.948;11.574;2024-01-15T19:34:57;3.90;68.40
8103;DHT22;4094;49.948;11.574;2024-01-15T19:37:50;3.90;68.60
8103;DHT22;4094;49.948;11.574;2024-01-15T19:42:04;4.00;68.90
8103;DHT22;4094;49.948;11.574;2024-01-15T19:44:59;4.00;68.90
8103;DHT22;4094;49.948;11.574;2024-01-15T19:48:03;4.00;68.70
8103;DHT22;4094;49.948;11.574;2024-01-15T19:51:21;4.00;68.70
8103;DHT22;4094;49.948;11.574;2024-01-15T19:54:15;4.00;68.40
8103;DHT22;4094;49.948;11.574;2024-01-15T19:57:09;4.00;69.00
8103;DHT22;4094;49.948;11.574;2024-01-15T19:59:58;4.00;68.40
8103;DHT22;4094;49.948;11.574;2024-01-15T20:03:20;3.90;68.40
8103;DHT22;4094;49.948;11.574;2024-01-15T20:06:14;4.00;68.40
8103;DHT22;4094;49.948;11.574;2024-01-15T20:09:16;3.90;68.20
8103;DHT22;4094;49.948;11.574;2024-01-15T20:12:11;3.90;68.30
8103;DHT22;4094;49.948;11.574;2024-01-15T20:15:06;3.90;68.20
8103;DHT22;4094;49.948;11.574;2024-01-15T20:18:41;3.90;68.60
8103;DHT22;4094;49.948;11.574;2024-01-15T20:22:04;3.80;68.30
8103;DHT22;4094;49.948;11.574;2024-01-15T20:28:42;3.80;68.40
8103;DHT22;4094;49.948;11.574;2024-01-15T20:31:39;3.80;68.10
8103;DHT22;4094;49.948;11.574;2024-01-15T20:35:07;3.80;68.20
8103;DHT22;4094;49.948;11.574;2024-01-15T20:42:04;3.80;68.20
8103;DHT22;4094;49.948;11.574;2024-01-15T20:45:53;3.80;68.20
8103;DHT22;4094;49.948;11.574;2024-01-15T20:48:59;3.80;68.40
8103;DHT22;4094;49.948;11.574;2024-01-15T20:52:23;3.80;68.10
8103;DHT22;4094;49.948;11.574;2024-01-15T20:55:19;3.80;68.10
8103;DHT22;4094;49.948;11.574;2024-01-15T20:58:24;3.80;68.10
8103;DHT22;4094;49.948;11.574;2024-01-15T21:01:21;3.80;68.10
8103;DHT22;4094;49.948;11.574;2024-01-15T21:04:41;3.80;68.10
8103;DHT22;4094;49.948;11.574;2024-01-15T21:08:47;3.80;67.80
8103;DHT22;4094;49.948;11.574;2024-01-15T21:12:49;3.80;67.80
8103;DHT22;4094;49.948;11.574;2024-01-15T21:15:54;3.80;68.20
8103;DHT22;4094;49.948;11.574;2024-01-15T21:19:43;3.80;68.30
8103;DHT22;4094;49.948;11.574;2024-01-15T21:23:40;3.80;68.00
8103;DHT22;4094;49.948;11.574;2024-01-15T21:26:55;3.80;67.90
8103;DHT22;4094;49.948;11.574;2024-01-15T21:45:12;3.80;67.70
8103;DHT22;4094;49.948;11.574;2024-01-15T21:49:25;3.80;68.00
8103;DHT22;4094;49.948;11.574;2024-01-15T21:52:36;3.80;67.70
8103;DHT22;4094;49.948;11.574;2024-01-15T21:56:42;3.80;67.70
8103;DHT22;4094;49.948;11.574;2024-01-15T22:00:17;3.80;67.80
8103;DHT22;4094;49.948;11.574;2024-01-15T22:12:26;3.80;67.60
8103;DHT22;4094;49.948;11.574;2024-01-15T22:15:43;3.80;67.50
8103;DHT22;4094;49.948;11.574;2024-01-15T22:19:59;3.70;67.50
8103;DHT22;4094;49.948;11.574;2024-01-15T22:23:47;3.70;67.80
8103;DHT22;4094;49.948;11.574;2024-01-15T22:27:51;3.70;68.40
8103;DHT22;4094;49.948;11.574;2024-01-15T22:32:26;3.70;68.00
8103;DHT22;4094;49.948;11.574;2024-01-15T22:36:07;3.70;68.10
8103;DHT22;4094;49.948;11.574;2024-01-15T22:46:50;3.70;68.00
8103;DHT22;4094;49.948;11.574;2024-01-15T22:49:43;3.70;68.10
8103;DHT22;4094;49.948;11.574;2024-01-15T22:53:11;3.70;68.10
8103;DHT22;4094;49.948;11.574;2024-01-15T22:57:52;3.70;68.10
8103;DHT22;4094;49.948;11.574;2024-01-15T23:01:35;3.70;68.20
8103;DHT22;4094;49.948;11.574;2024-01-15T23:10:38;3.70;68.80
8103;DHT22;4094;49.948;11.574;2024-01-15T23:19:09;3.70;67.90
8103;DHT22;4094;49.948;11.574;2024-01-15T23:22:57;3.70;68.20
8103;DHT22;4094;49.948;11.574;2024-01-15T23:30:47;3.60;69.00
8103;DHT22;4094;49.948;11.574;2024-01-15T23:34:01;3.60;69.10
8103;DHT22;4094;49.948;11.574;2024-01-15T23:43:55;3.60;69.40
8103;DHT22;4094;49.948;11.574;2024-01-15T23:54:07;3.60;69.70
8103;DHT22;4094;49.948;11.574;2024-01-15T23:58:10;3.60;69.50
